^^
Station Historical Data
 
Daily Summary for December 07, 2016 Units:  English    Metric   Both
« Previous Day
Next Day »
Daily Weekly Monthly Yearly Custom
  Current: High: Low: Average:
Temperature: 11.9 °F 18.9 °F 7.4 °F 12.7 °F
Dew Point: 2.0 °F 14.0 °F 0.2 °F 6.3 °F
Humidity: 64% 83% 63% 75%
Wind Speed: 2.3mph 3.5mph 0.0mph 1.6mph
Wind Gust: 2.3mph 3.5mph - -
WindNE - - ESE
Pressure: 30.46 in 30.47 in 30.03 in -
Precipitation: 0.00 in      
Historical Graphs
 
 
Tabular Data for December 07, 2016
Time Temperature Dew Point Pressure Wind Wind Speed Wind Gust Humidity Rainfall Rate (Hourly) solar Conditions
00:00 18.9 °F 14.0 °F 30.05 in ESE 2.3 mph 2.3 mph 81% 0.00 in WeatherDisplay:10.37 W/m2 CLR
00:05 18.9 °F 14.0 °F 30.03 in ESE 2.3 mph 2.3 mph 81% 0.00 in WeatherDisplay:10.37 W/m2 CLR
00:10 18.8 °F 13.9 °F 30.03 in ESE 2.3 mph 2.3 mph 81% 0.00 in WeatherDisplay:10.37 W/m2 CLR
00:15 18.8 °F 13.9 °F 30.04 in Calm     81% 0.00 in WeatherDisplay:10.37 W/m2 CLR
00:20 18.8 °F 13.9 °F 30.05 in Calm     81% 0.00 in WeatherDisplay:10.37 W/m2 CLR
00:25 18.8 °F 13.9 °F 30.04 in ESE 1.2 mph 1.2 mph 81% 0.00 in WeatherDisplay:10.37 W/m2 CLR
00:30 18.8 °F 13.9 °F 30.03 in ESE 2.3 mph 2.3 mph 81% 0.00 in WeatherDisplay:10.37 W/m2 CLR
00:35 18.6 °F 14.0 °F 30.03 in ESE 3.5 mph 3.5 mph 82% 0.00 in WeatherDisplay:10.37 W/m2 CLR
00:40 18.6 °F 14.0 °F 30.03 in ESE 2.3 mph 2.3 mph 82% 0.00 in WeatherDisplay:10.37 W/m2 CLR
00:45 18.6 °F 14.0 °F 30.03 in ESE 2.3 mph 2.3 mph 82% 0.00 in WeatherDisplay:10.37 W/m2 CLR
00:50 18.6 °F 14.0 °F 30.03 in ESE 2.3 mph 2.3 mph 82% 0.00 in WeatherDisplay:10.37 W/m2 CLR
00:55 18.6 °F 14.0 °F 30.03 in ESE 2.3 mph 2.3 mph 82% 0.00 in WeatherDisplay:10.37 W/m2 CLR
01:00 18.6 °F 14.0 °F 30.04 in ESE 2.3 mph 2.3 mph 82% 0.00 in WeatherDisplay:10.37 W/m2 CLR
01:05 18.4 °F 13.8 °F 30.06 in ESE 2.3 mph 2.3 mph 82% 0.00 in WeatherDisplay:10.37 W/m2 CLR
01:10 18.4 °F 13.8 °F 30.05 in ESE 2.3 mph 2.3 mph 82% 0.00 in WeatherDisplay:10.37 W/m2 CLR
01:15 18.4 °F 13.8 °F 30.05 in ESE 2.3 mph 2.3 mph 82% 0.00 in WeatherDisplay:10.37 W/m2 CLR
01:20 18.4 °F 13.8 °F 30.06 in ESE 2.3 mph 2.3 mph 82% 0.00 in WeatherDisplay:10.37 W/m2 CLR
01:25 18.4 °F 13.8 °F 30.04 in ESE 2.3 mph 2.3 mph 82% 0.00 in WeatherDisplay:10.37 W/m2 CLR
01:30 18.4 °F 13.8 °F 30.03 in ESE 2.3 mph 2.3 mph 82% 0.00 in WeatherDisplay:10.37 W/m2 CLR
01:35 18.4 °F 13.8 °F 30.06 in ESE 3.5 mph 3.5 mph 82% 0.00 in WeatherDisplay:10.37 W/m2 CLR
01:40 18.4 °F 13.8 °F 30.06 in ESE 2.3 mph 2.3 mph 82% 0.00 in WeatherDisplay:10.37 W/m2 CLR
01:45 18.4 °F 13.8 °F 30.06 in ESE 2.3 mph 2.3 mph 82% 0.00 in WeatherDisplay:10.37 W/m2 CLR
01:50 18.4 °F 13.8 °F 30.05 in ESE 3.5 mph 3.5 mph 82% 0.00 in WeatherDisplay:10.37 W/m2 CLR
01:55 18.3 °F 13.7 °F 30.06 in ESE 1.2 mph 1.2 mph 82% 0.00 in WeatherDisplay:10.37 W/m2 CLR
02:00 18.3 °F 13.7 °F 30.07 in ESE 2.3 mph 2.3 mph 82% 0.00 in WeatherDisplay:10.37 W/m2 CLR
02:05 18.3 °F 13.7 °F 30.07 in ESE 3.5 mph 3.5 mph 82% 0.00 in WeatherDisplay:10.37 W/m2 CLR
02:10 18.3 °F 13.7 °F 30.07 in ESE 2.0 mph 2.0 mph 82% 0.00 in WeatherDisplay:10.37 W/m2 CLR
02:15 18.3 °F 13.7 °F 30.07 in ESE 2.3 mph 2.3 mph 82% 0.00 in WeatherDisplay:10.37 W/m2 CLR
02:20 18.4 °F 13.8 °F 30.07 in ESE 3.5 mph 3.5 mph 82% 0.00 in WeatherDisplay:10.37 W/m2 CLR
02:25 18.4 °F 13.8 °F 30.08 in ESE 1.2 mph 1.2 mph 82% 0.00 in WeatherDisplay:10.37 W/m2 CLR
02:35 18.3 °F 13.7 °F 30.07 in ESE 2.3 mph 2.3 mph 82% 0.00 in WeatherDisplay:10.37 W/m2 CLR
02:40 18.1 °F 13.5 °F 30.07 in ENE 2.3 mph 2.3 mph 82% 0.00 in WeatherDisplay:10.37 W/m2 CLR
02:45 18.1 °F 13.8 °F 30.08 in ENE 2.3 mph 2.3 mph 83% 0.00 in WeatherDisplay:10.37 W/m2 CLR
02:50 18.1 °F 13.8 °F 30.09 in ENE 2.3 mph 2.3 mph 83% 0.00 in WeatherDisplay:10.37 W/m2 CLR
02:55 18.1 °F 13.8 °F 30.09 in Calm     83% 0.00 in WeatherDisplay:10.37 W/m2 CLR
03:00 18.0 °F 13.7 °F 30.14 in ENE 2.3 mph 2.3 mph 83% 0.00 in WeatherDisplay:10.37 W/m2 CLR
03:05 18.0 °F 13.7 °F 30.15 in ENE 2.3 mph 2.3 mph 83% 0.00 in WeatherDisplay:10.37 W/m2 CLR
03:10 18.0 °F 13.7 °F 30.15 in ENE 2.3 mph 2.3 mph 83% 0.00 in WeatherDisplay:10.37 W/m2 CLR
03:15 17.8 °F 13.5 °F 30.15 in ENE 2.3 mph 2.3 mph 83% 0.00 in WeatherDisplay:10.37 W/m2 CLR
03:20 17.8 °F 13.5 °F 30.16 in ENE 2.3 mph 2.3 mph 83% 0.00 in WeatherDisplay:10.37 W/m2 CLR
03:25 17.8 °F 13.5 °F 30.16 in ENE 1.0 mph 1.0 mph 83% 0.00 in WeatherDisplay:10.37 W/m2 CLR
03:30 17.8 °F 13.5 °F 30.17 in ENE 2.3 mph 2.3 mph 83% 0.00 in WeatherDisplay:10.37 W/m2 CLR
03:35 17.8 °F 13.5 °F 30.17 in ENE 1.2 mph 1.2 mph 83% 0.00 in WeatherDisplay:10.37 W/m2 CLR
03:40 17.7 °F 13.4 °F 30.17 in ENE 2.3 mph 2.3 mph 83% 0.00 in WeatherDisplay:10.37 W/m2 CLR
03:45 17.7 °F 13.4 °F 30.17 in ENE 1.2 mph 1.2 mph 83% 0.00 in WeatherDisplay:10.37 W/m2 CLR
03:50 15.7 °F 10.9 °F 30.21 in NNE 2.3 mph 2.3 mph 81% 0.00 in WeatherDisplay:10.37 W/m2 CLR
03:55 14.4 °F 9.6 °F 30.22 in NE 3.5 mph 3.5 mph 81% 0.00 in WeatherDisplay:10.37 W/m2 CLR
04:00 13.8 °F 9.0 °F 30.17 in North 3.5 mph 3.5 mph 81% 0.00 in WeatherDisplay:10.37 W/m2 CLR
04:05 13.3 °F 8.6 °F 30.17 in NNE 3.0 mph 3.0 mph 81% 0.00 in WeatherDisplay:10.37 W/m2 CLR
04:10 12.9 °F 8.2 °F 30.18 in NNE 3.5 mph 3.5 mph 81% 0.00 in WeatherDisplay:10.37 W/m2 CLR
04:15 12.8 °F 8.1 °F 30.18 in North 2.3 mph 2.3 mph 81% 0.00 in WeatherDisplay:10.37 W/m2 CLR
04:20 12.6 °F 7.9 °F 30.18 in North 3.5 mph 3.5 mph 81% 0.00 in WeatherDisplay:10.37 W/m2 CLR
04:25 12.4 °F 7.7 °F 30.21 in North 2.3 mph 2.3 mph 81% 0.00 in WeatherDisplay:10.37 W/m2 CLR
04:30 12.1 °F 7.4 °F 30.21 in NNE 2.3 mph 2.3 mph 81% 0.00 in WeatherDisplay:10.37 W/m2 CLR
04:35 11.9 °F 7.2 °F 30.21 in NE 3.5 mph 3.5 mph 81% 0.00 in WeatherDisplay:10.37 W/m2 CLR
04:40 11.7 °F 7.0 °F 30.22 in NE 2.3 mph 2.3 mph 81% 0.00 in WeatherDisplay:10.37 W/m2 CLR
04:45 11.7 °F 7.0 °F 30.22 in NE 2.3 mph 2.3 mph 81% 0.00 in WeatherDisplay:10.37 W/m2 CLR
04:55 11.6 °F 6.9 °F 30.22 in NNW 3.5 mph 3.5 mph 81% 0.00 in WeatherDisplay:10.37 W/m2 CLR
05:00 11.6 °F 6.9 °F 30.23 in North 3.5 mph 3.5 mph 81% 0.00 in WeatherDisplay:10.37 W/m2 CLR
05:05 11.4 °F 6.4 °F 30.24 in NNW 2.3 mph 2.3 mph 80% 0.00 in WeatherDisplay:10.37 W/m2 CLR
05:11 11.4 °F 6.4 °F 30.24 in North 2.3 mph 2.3 mph 80% 0.00 in WeatherDisplay:10.37 W/m2 CLR
05:16 11.2 °F 6.2 °F 30.24 in North 3.5 mph 3.5 mph 80% 0.00 in WeatherDisplay:10.37 W/m2 CLR
05:21 11.2 °F 6.2 °F 30.25 in Calm     80% 0.00 in WeatherDisplay:10.37 W/m2 CLR
05:26 11.4 °F 6.4 °F 30.25 in Calm   0.3 mph 80% 0.00 in WeatherDisplay:10.37 W/m2 CLR
05:31 11.4 °F 6.4 °F 30.25 in North 1.2 mph 1.2 mph 80% 0.00 in WeatherDisplay:10.37 W/m2 CLR
05:36 11.4 °F 6.4 °F 30.26 in North 1.2 mph 1.2 mph 80% 0.00 in WeatherDisplay:10.37 W/m2 CLR
05:41 11.4 °F 6.4 °F 30.26 in North 1.2 mph   80% 0.00 in WeatherDisplay:10.37 W/m2 CLR
05:46 11.2 °F 6.2 °F 30.26 in NNE 1.2 mph 1.2 mph 80% 0.00 in WeatherDisplay:10.37 W/m2 CLR
05:51 11.1 °F 5.9 °F 30.27 in North 2.3 mph 2.3 mph 79% 0.00 in WeatherDisplay:10.37 W/m2 CLR
05:56 10.9 °F 5.7 °F 30.27 in North 1.2 mph 1.2 mph 79% 0.00 in WeatherDisplay:10.37 W/m2 CLR
06:01 10.7 °F 5.7 °F 30.28 in North 1.2 mph   80% 0.00 in WeatherDisplay:10.37 W/m2 CLR
06:06 10.7 °F 5.5 °F 30.28 in NNE 1.2 mph 1.2 mph 79% 0.00 in WeatherDisplay:10.37 W/m2 CLR
06:11 10.5 °F 5.3 °F 30.28 in North 1.2 mph 1.2 mph 79% 0.00 in WeatherDisplay:10.37 W/m2 CLR
06:16 10.2 °F 5.0 °F 30.29 in NNE 1.2 mph 1.2 mph 79% 0.00 in WeatherDisplay:10.37 W/m2 CLR
06:21 9.9 °F 4.7 °F 30.30 in Calm     79% 0.00 in WeatherDisplay:10.37 W/m2 CLR
06:26 9.7 °F 4.5 °F 30.31 in NNE 1.2 mph 1.2 mph 79% 0.00 in WeatherDisplay:10.37 W/m2 CLR
06:31 9.7 °F 4.5 °F 30.31 in Calm     79% 0.00 in WeatherDisplay:10.37 W/m2 CLR
06:36 9.5 °F 4.3 °F 30.31 in Calm     79% 0.00 in WeatherDisplay:10.37 W/m2 CLR
06:41 9.5 °F 4.3 °F 30.31 in NNE 1.2 mph 1.2 mph 79% 0.00 in WeatherDisplay:10.37 W/m2 CLR
06:46 9.2 °F 3.7 °F 30.32 in NNE 1.2 mph 1.2 mph 78% 0.00 in WeatherDisplay:10.37 W/m2 CLR
06:51 9.0 °F 3.5 °F 30.33 in Calm     78% 0.00 in WeatherDisplay:10.37 W/m2 CLR
06:56 8.8 °F 3.3 °F 30.33 in Calm     78% 0.00 in WeatherDisplay:10.37 W/m2 CLR
07:01 8.6 °F 3.1 °F 30.34 in NNE 2.3 mph 2.3 mph 78% 0.00 in WeatherDisplay:10.37 W/m2 CLR
07:06 8.4 °F 2.9 °F 30.35 in NNE 1.2 mph 1.2 mph 78% 0.00 in WeatherDisplay:10.37 W/m2 CLR
07:16 8.3 °F 2.6 °F 30.36 in NNE 1.2 mph 1.2 mph 77% 0.00 in WeatherDisplay:10.37 W/m2 CLR
07:21 8.1 °F 2.1 °F 30.36 in NNE 1.2 mph 1.2 mph 76% 0.00 in WeatherDisplay:10.37 W/m2 CLR
07:26 7.9 °F 1.6 °F 30.36 in North 1.2 mph 1.2 mph 75% 0.00 in WeatherDisplay:10.37 W/m2 CLR
07:31 7.7 °F 1.1 °F 30.37 in North 1.2 mph 1.2 mph 74% 0.00 in WeatherDisplay:10.37 W/m2 CLR
07:36 7.6 °F 0.7 °F 30.38 in North 2.3 mph 2.3 mph 73% 0.00 in WeatherDisplay:10.37 W/m2 CLR
07:41 7.4 °F 0.3 °F 30.39 in NNW 2.3 mph 2.3 mph 72% 0.00 in WeatherDisplay:10.37 W/m2 CLR
07:51 7.4 °F 0.3 °F 30.39 in North 1.2 mph   72% 0.00 in WeatherDisplay:10.37 W/m2 CLR
08:02 7.6 °F 0.5 °F 30.41 in NNW 2.3 mph 2.3 mph 72% 0.00 in WeatherDisplay:10.37 W/m2 CLR
08:07 7.6 °F 0.2 °F 30.41 in NNW 2.3 mph 2.3 mph 71% 0.00 in WeatherDisplay:10.37 W/m2 CLR
08:12 7.6 °F 0.2 °F 30.42 in North 2.3 mph 2.3 mph 71% 0.00 in WeatherDisplay:10.37 W/m2 CLR
08:17 7.6 °F 0.2 °F 30.42 in North 1.2 mph 1.2 mph 71% 0.00 in WeatherDisplay:10.37 W/m2 CLR
08:22 7.6 °F 0.2 °F 30.42 in North 1.2 mph   71% 0.00 in WeatherDisplay:10.37 W/m2 CLR
08:27 7.6 °F 0.5 °F 30.43 in North 1.2 mph   72% 0.00 in WeatherDisplay:10.37 W/m2 CLR
08:32 7.7 °F 0.5 °F 30.43 in Calm     72% 0.00 in WeatherDisplay:10.37 W/m2 CLR
08:37 7.9 °F 0.7 °F 30.43 in North 1.2 mph   72% 0.00 in WeatherDisplay:10.37 W/m2 CLR
08:42 7.9 °F 0.7 °F 30.44 in North 1.2 mph 1.2 mph 72% 0.00 in WeatherDisplay:10.37 W/m2 CLR
08:47 7.9 °F 0.7 °F 30.44 in Calm   0.1 mph 72% 0.00 in WeatherDisplay:10.37 W/m2 CLR
08:52 8.1 °F 0.9 °F 30.44 in Calm     72% 0.00 in WeatherDisplay:10.37 W/m2 CLR
08:57 8.3 °F 0.8 °F 30.44 in Calm     71% 0.00 in WeatherDisplay:10.37 W/m2 CLR
09:02 8.4 °F 0.9 °F 30.44 in Calm     71% 0.00 in WeatherDisplay:10.37 W/m2 CLR
09:07 8.6 °F 1.1 °F 30.45 in Calm     71% 0.00 in WeatherDisplay:10.37 W/m2 CLR
09:12 8.8 °F 1.3 °F 30.45 in Calm     71% 0.00 in WeatherDisplay:10.37 W/m2 CLR
09:17 9.2 °F 1.7 °F 30.46 in Calm     71% 0.00 in WeatherDisplay:10.37 W/m2 CLR
09:22 9.5 °F 2.0 °F 30.46 in NNE 2.3 mph 2.3 mph 71% 0.00 in WeatherDisplay:10.37 W/m2 CLR
09:27 9.7 °F 1.9 °F 30.45 in NNE 1.0 mph   70% 0.00 in WeatherDisplay:10.37 W/m2 CLR
09:32 9.9 °F 1.8 °F 30.45 in NNE 2.3 mph 2.3 mph 69% 0.00 in WeatherDisplay:10.37 W/m2 CLR
09:37 10.0 °F 1.9 °F 30.45 in NNE 1.2 mph   69% 0.00 in WeatherDisplay:10.37 W/m2 CLR
09:42 9.9 °F 1.4 °F 30.45 in NNE 2.3 mph 2.3 mph 68% 0.00 in WeatherDisplay:10.37 W/m2 CLR
09:47 9.7 °F 1.6 °F 30.46 in NNE 1.2 mph 1.2 mph 69% 0.00 in WeatherDisplay:10.37 W/m2 CLR
09:52 9.9 °F 1.4 °F 30.46 in NNE 2.3 mph 2.3 mph 68% 0.00 in WeatherDisplay:10.37 W/m2 CLR
09:57 9.9 °F 1.4 °F 30.46 in Calm     68% 0.00 in WeatherDisplay:10.37 W/m2 CLR
10:02 10.0 °F 1.5 °F 30.46 in NNE 1.2 mph 1.2 mph 68% 0.00 in WeatherDisplay:10.37 W/m2 CLR
10:07 10.0 °F 1.5 °F 30.46 in Calm     68% 0.00 in WeatherDisplay:10.37 W/m2 CLR
10:12 10.2 °F 1.7 °F 30.46 in NNE 1.2 mph   68% 0.00 in WeatherDisplay:10.37 W/m2 CLR
10:17 10.4 °F 1.9 °F 30.46 in Calm     68% 0.00 in WeatherDisplay:10.37 W/m2 CLR
10:22 10.5 °F 1.7 °F 30.46 in NNE 2.3 mph 2.3 mph 67% 0.00 in WeatherDisplay:10.37 W/m2 CLR
10:27 10.7 °F 2.2 °F 30.46 in NNE 2.3 mph 2.3 mph 68% 0.00 in WeatherDisplay:10.37 W/m2 CLR
10:32 10.5 °F 2.0 °F 30.46 in NE 2.3 mph 2.3 mph 68% 0.00 in WeatherDisplay:10.37 W/m2 CLR
10:37 10.5 °F 2.0 °F 30.46 in Calm     68% 0.00 in WeatherDisplay:10.37 W/m2 CLR
10:42 10.7 °F 2.2 °F 30.46 in Calm   0.1 mph 68% 0.00 in WeatherDisplay:10.37 W/m2 CLR
10:47 10.7 °F 2.2 °F 30.46 in NE 2.3 mph 2.3 mph 68% 0.00 in WeatherDisplay:10.37 W/m2 CLR
10:52 10.5 °F 2.0 °F 30.46 in Calm     68% 0.00 in WeatherDisplay:10.37 W/m2 CLR
10:57 10.7 °F 2.2 °F 30.46 in Calm     68% 0.00 in WeatherDisplay:10.37 W/m2 CLR
11:02 10.9 °F 2.1 °F 30.46 in Calm     67% 0.00 in WeatherDisplay:10.37 W/m2 CLR
11:07 11.1 °F 2.3 °F 30.47 in NE 1.2 mph 1.2 mph 67% 0.00 in WeatherDisplay:10.37 W/m2 CLR
11:12 11.2 °F 2.0 °F 30.47 in NE 1.2 mph   66% 0.00 in WeatherDisplay:10.37 W/m2 CLR
11:17 11.2 °F 2.0 °F 30.46 in NE 2.3 mph 2.3 mph 66% 0.00 in WeatherDisplay:10.37 W/m2 CLR
11:22 11.1 °F 1.9 °F 30.46 in Calm     66% 0.00 in WeatherDisplay:10.37 W/m2 CLR
11:27 11.1 °F 1.9 °F 30.47 in Calm     66% 0.00 in WeatherDisplay:10.37 W/m2 CLR
11:32 10.9 °F 1.4 °F 30.46 in Calm     65% 0.00 in WeatherDisplay:10.37 W/m2 CLR
11:42 10.5 °F 1.0 °F 30.46 in NE 2.3 mph 2.3 mph 65% 0.00 in WeatherDisplay:10.37 W/m2 CLR
11:47 10.5 °F 1.0 °F 30.46 in Calm     65% 0.00 in WeatherDisplay:10.37 W/m2 CLR
11:52 10.5 °F 1.0 °F 30.46 in NE 2.3 mph 2.3 mph 65% 0.00 in WeatherDisplay:10.37 W/m2 CLR
11:57 10.9 °F 1.1 °F 30.46 in NE 1.2 mph 1.2 mph 64% 0.00 in WeatherDisplay:10.37 W/m2 CLR
12:02 11.2 °F 1.7 °F 30.46 in NE 1.2 mph   65% 0.00 in WeatherDisplay:10.37 W/m2 CLR
12:07 11.6 °F 1.8 °F 30.46 in NE 2.3 mph   64% 0.00 in WeatherDisplay:10.37 W/m2 CLR
12:12 11.7 °F 1.9 °F 30.46 in Calm     64% 0.00 in WeatherDisplay:10.37 W/m2 CLR
12:17 12.1 °F 2.2 °F 30.46 in NE 2.3 mph 2.3 mph 64% 0.00 in WeatherDisplay:10.37 W/m2 CLR
12:22 12.3 °F 2.4 °F 30.46 in NE 3.5 mph 3.5 mph 64% 0.00 in WeatherDisplay:10.37 W/m2 CLR
12:27 12.4 °F 2.5 °F 30.45 in NE 2.3 mph 2.3 mph 64% 0.00 in WeatherDisplay:10.37 W/m2 CLR
12:32 12.1 °F 2.2 °F 30.46 in NE 2.3 mph   64% 0.00 in WeatherDisplay:10.37 W/m2 CLR
12:37 11.7 °F 1.9 °F 30.46 in Calm     64% 0.00 in WeatherDisplay:10.37 W/m2 CLR
12:42 11.7 °F 1.9 °F 30.46 in Calm   0.4 mph 64% 0.00 in WeatherDisplay:10.37 W/m2 CLR
12:47 12.1 °F 2.2 °F 30.46 in Calm     64% 0.00 in WeatherDisplay:10.37 W/m2 CLR
12:52 12.1 °F 1.9 °F 30.46 in Calm     63% 0.00 in WeatherDisplay:10.37 W/m2 CLR
12:57 12.3 °F 2.1 °F 30.46 in NE 1.0 mph 1.0 mph 63% 0.00 in WeatherDisplay:10.37 W/m2 CLR
13:03 11.7 °F 1.5 °F 30.46 in NE 2.3 mph 2.3 mph 63% 0.00 in WeatherDisplay:10.37 W/m2 CLR
13:08 11.7 °F 1.9 °F 30.46 in NE 2.3 mph 2.3 mph 64% 0.00 in WeatherDisplay:10.37 W/m2 CLR
13:13 11.9 °F 2.0 °F 30.46 in NE 2.3 mph 2.3 mph 64% 0.00 in WeatherDisplay:10.37 W/m2 CLR
Windsor Co Weather
Compliments of Weather Underground - 2.25 mb